Ames, New York
Current Conditions -  °F | °C
As of 3:15 PM on Monday 26 Jan 2015 (Local Time) from KNY0 Reporting Station
Overcast Overcast  
Wind Chill:   Ceiling: 4100
Heat Index: 16°   Visibility: 10mi
Dew Point: -1°   Wind: 7mph
Humidity: 48%   Direction: 80°E
Pressure: 29.97"   Gusts: NA
Location:  42.8548°N, 74.5942°W
Report Text: KNY0 262015Z AUTO 08006KT 10SM OVC041 M09/M18 A2997 RMK AO2 T10901183
Loading
Personal Weather Stations






























Interactive Weather Map New forecast layout! Learn more

10-Day Weather Forecast

Advertisements
Track Severe Weather on mobile